Picnic Point, Washington
Current Conditions -  °F | °C
As of 6:53 AM on Wednesday 22 Oct 2014 (Local Time) from KTIW Reporting Station
Light Rain Light Rain  
Wind Chill: 56°   Ceiling: 3600
Heat Index: 56°   Visibility: 10mi
Dew Point: 53°   Wind: 15mph
Humidity: 90%   Direction: 190°S
Pressure: 29.69"   Gusts: NA
Location:  47.2986°N, 122.616°W
Report Text: KTIW 221353Z AUTO 19013KT 10SM -RA FEW024 BKN036 OVC047 13/12 A2969 RMK AO2 SLP054 P0007 T01330117
Loading
Personal Weather Stations






























Interactive Weather Map
Tropical Storm Tracking
New forecast layout! Learn more

10-Day Weather Forecast

Advertisements
Track Severe Weather on mobile